Flight Track Log - Related Links

Times and Time Zones

All times are in EDT time to prevent confusion due to time zone crossing. See the N746CA flight status page for this flight to view local times or setup timezone preferences in your user account.

Time Position Orientation Groundspeed Altitude Reporting Facility
EDT Latitude Longitude Course Direction KTS MPH feet Rate Location/Type
Thu 02:05:43 PM 32.8167 -117.1667 320° Northwest 113 130 1,400  Level Southern California TRACON
Thu 02:06:43 PM 32.8333 -117.2167 292° West 125 144 2,000 551 Climbing Southern California TRACON
Thu 02:07:21 PM 32.8311 -117.2317 260° West 122 140 2,300 600 Climbing Los Angeles Center
Thu 02:08:23 PM 32.8600 -117.2656 315° West 121 139 3,000 581 Climbing Los Angeles Center
Thu 02:09:25 PM 32.8703 -117.3086 286° West 132 152 3,500 532 Climbing Los Angeles Center
Thu 02:10:27 PM 32.8850 -117.3481 294° West 130 150 4,100 629 Climbing Los Angeles Center
Thu 02:11:00 PM 32.9297 -117.3964 320° Northwest  Level FlightAware Approximate
Thu 02:11:29 PM 32.8986 -117.3847 294° West 124 143 4,800  Level Los Angeles Center
Thu 02:12:31 PM 32.9122 -117.4217 294° West 122 140 5,300 528 Climbing Los Angeles Center
Thu 02:13:34 PM 32.9247 -117.4647 289° West 123 142 5,900 576 Climbing Los Angeles Center
Thu 02:14:36 PM 32.9450 -117.5036 302° West 125 144 6,500 484 Climbing Los Angeles Center
Thu 02:15:38 PM 32.9622 -117.5431 298° West 132 152 6,900 532 Climbing Los Angeles Center
Thu 02:16:40 PM 32.9794 -117.5808 299° West 131 151 7,600 581 Climbing Los Angeles Center
Thu 02:17:42 PM 32.9975 -117.6169 301° West 128 147 8,100 532 Climbing Los Angeles Center
Thu 02:18:44 PM 33.0150 -117.6542 299° West 129 148 8,700 532 Climbing Los Angeles Center
Thu 02:19:46 PM 33.0322 -117.6933 298° West 132 152 9,200 532 Climbing Los Angeles Center
Thu 02:20:48 PM 33.0558 -117.7411 301° West 137 158 9,800 532 Climbing Los Angeles Center
Thu 02:21:50 PM 33.0753 -117.7819 300° West 141 162 10,300 528 Climbing Los Angeles Center
Thu 02:22:53 PM 33.0964 -117.8203 303° West 139 160 10,900 528 Climbing Los Angeles Center
Thu 02:23:55 PM 33.1144 -117.8619 297° West 141 162 11,400 484 Climbing Los Angeles Center
Thu 02:24:57 PM 33.1339 -117.9050 298° West 145 167 11,900 484 Climbing Los Angeles Center
Thu 02:25:59 PM 33.1550 -117.9506 299° West 153 176 12,400 484 Climbing Los Angeles Center
Thu 02:27:01 PM 33.1808 -118.0050 300° West 157 181 12,900 484 Climbing Los Angeles Center
Thu 02:28:03 PM 33.2042 -118.0506 301° West 160 184 13,400 484 Climbing Los Angeles Center
Thu 02:29:05 PM 33.2264 -118.0981 299° West 162 186 13,900 484 Climbing Los Angeles Center
Thu 02:30:07 PM 33.2497 -118.1467 300° West 168 193 14,400 480 Climbing Los Angeles Center
Thu 02:31:10 PM 33.2711 -118.1950 298° West 166 191 14,900 480 Climbing Los Angeles Center
Thu 02:32:12 PM 33.2986 -118.2542 299° West 169 194 15,400 484 Climbing Los Angeles Center
Thu 02:33:14 PM 33.3211 -118.3044 298° West 170 196 15,900 435 Climbing Los Angeles Center
Thu 02:34:16 PM 33.3458 -118.3558 300° West 176 203 16,300 387 Climbing Los Angeles Center
Thu 02:35:18 PM 33.3686 -118.4083 297° West 177 204 16,700 387 Climbing Los Angeles Center
Thu 02:36:20 PM 33.4075 -118.4461 321° Northwest 179 206 17,100 432 Climbing Los Angeles Center
Thu 02:37:23 PM 33.4492 -118.4806 325° Northwest 182 209 17,600 387 Climbing Los Angeles Center
Thu 02:38:24 PM 33.5031 -118.5189 329° Northwest 185 213 17,900 387 Climbing Los Angeles Center
Thu 02:39:27 PM 33.5469 -118.5519 328° Northwest 186 214 18,400 432 Climbing Los Angeles Center
Thu 02:40:29 PM 33.5914 -118.5856 328° Northwest 189 217 18,800 387 Climbing Los Angeles Center
Thu 02:41:31 PM 33.6356 -118.6183 328° Northwest 186 214 19,200 387 Climbing Los Angeles Center
Thu 02:42:33 PM 33.6794 -118.6528 327° Northwest 188 216 19,600 339 Climbing Los Angeles Center
Thu 02:43:35 PM 33.7242 -118.6872 327° Northwest 191 220 19,900 194 Climbing Los Angeles Center
Thu 02:44:37 PM 33.7714 -118.7228 328° Northwest 200 230 20,000 48 Climbing Los Angeles Center
Thu 02:45:39 PM 33.8217 -118.7622 327° Northwest 212 244 20,000  Level Los Angeles Center
Thu 02:46:41 PM 33.8825 -118.8078 328° Northwest 215 247 20,000  Level Los Angeles Center
Thu 02:47:44 PM 33.9322 -118.8467 327° Northwest 212 244 20,000 -48 Level Los Angeles Center
Thu 02:48:46 PM 33.9811 -118.8850 327° Northwest 209 241 19,900 -48 Descending Los Angeles Center
Thu 02:49:48 PM 34.0297 -118.9231 327° Northwest 207 238 19,900  Level Los Angeles Center
Thu 02:50:50 PM 34.0786 -118.9608 327° Northwest 208 239 19,900  Level Los Angeles Center
Thu 02:51:52 PM 34.1353 -119.0064 326° Northwest 204 235 19,900  Level Los Angeles Center
Thu 02:52:54 PM 34.1822 -119.0467 325° Northwest 207 238 19,900  Level Los Angeles Center
Thu 02:53:56 PM 34.2278 -119.0872 324° Northwest 203 234 19,900  Level Los Angeles Center
Thu 02:54:59 PM 34.2744 -119.1283 324° Northwest 206 237 19,900  Level Los Angeles Center
Thu 02:56:01 PM 34.3208 -119.1675 325° Northwest 204 235 19,900  Level Los Angeles Center
Thu 02:57:03 PM 34.3675 -119.2081 324° Northwest 206 237 19,900  Level Los Angeles Center
Thu 02:58:05 PM 34.4236 -119.2564 325° Northwest 207 238 19,900 48 Level Los Angeles Center
Thu 02:59:07 PM 34.4692 -119.2983 323° Northwest 206 237 20,000  Climbing Los Angeles Center
Thu 03:00:09 PM 34.5072 -119.3297 326° Northwest 208 239 19,900  Descending Los Angeles Center
Thu 03:01:11 PM 34.5544 -119.3711 324° Northwest 208 239 20,000 48 Climbing Los Angeles Center
Thu 03:02:13 PM 34.6150 -119.4228 325° Northwest 209 241 20,000  Level Los Angeles Center
Thu 03:03:16 PM 34.6611 -119.4628 324° Northwest 208 239 20,000  Level Los Angeles Center
Thu 03:04:18 PM 34.7083 -119.5033 325° Northwest 208 239 20,000  Level Los Angeles Center
Thu 03:05:20 PM 34.7633 -119.5528 324° Northwest 205 236 20,000  Level Los Angeles Center
Thu 03:06:22 PM 34.8094 -119.5942 324° Northwest 204 235 20,000  Level Los Angeles Center
Thu 03:07:24 PM 34.8564 -119.6339 325° Northwest 205 236 20,000  Level Los Angeles Center
Thu 03:08:26 PM 34.9025 -119.6747 324° Northwest 205 236 20,000  Level Los Angeles Center
Thu 03:09:28 PM 34.9483 -119.7161 323° Northwest 205 236 20,000  Level Los Angeles Center
Thu 03:10:42 PM 34.9956 -119.7567 325° Northwest 207 238 20,000  Level Los Angeles Center
Thu 03:11:45 PM 35.0597 -119.8136 324° Northwest 204 235 20,000  Level Los Angeles Center
Thu 03:12:47 PM 35.1058 -119.8542 324° Northwest 205 236 20,000  Level Los Angeles Center
Thu 03:13:49 PM 35.1522 -119.8953 324° Northwest 205 236 20,000  Level Los Angeles Center
Thu 03:14:51 PM 35.1981 -119.9358 324° Northwest 204 235 20,000  Level Los Angeles Center
Thu 03:15:53 PM 35.2442 -119.9772 324° Northwest 206 237 20,000  Level Los Angeles Center
Thu 03:17:08 PM 35.2992 -120.0258 324° Northwest 205 236 20,000  Level Los Angeles Center
Thu 03:18:10 PM 35.3556 -120.0758 324° Northwest 208 239 20,000  Level Los Angeles Center
Thu 03:19:12 PM 35.4014 -120.1169 324° Northwest 207 238 20,000  Level Los Angeles Center
Thu 03:20:14 PM 35.4486 -120.1589 324° Northwest 208 239 20,000  Level Los Angeles Center
Thu 03:21:17 PM 35.4953 -120.2014 323° Northwest 209 241 20,000  Level Los Angeles Center
Thu 03:22:19 PM 35.5419 -120.2428 324° Northwest 208 239 20,000  Level Los Angeles Center
Thu 03:23:21 PM 35.5972 -120.2936 323° Northwest 207 238 20,000  Level Los Angeles Center
Thu 03:24:13 PM 35.6325 -120.3244 325° Northwest 208 239 20,000  Level Oakland Center
Thu 03:25:15 PM 35.6783 -120.3656 324° Northwest 206 237 20,000  Level Oakland Center
Thu 03:26:16 PM 35.7342 -120.4161 324° Northwest 209 241 20,000  Level Oakland Center
Thu 03:27:18 PM 35.7806 -120.4578 324° Northwest 208 239 20,000  Level Oakland Center
Thu 03:28:19 PM 35.8267 -120.5008 323° Northwest 209 241 20,000 -49 Level Oakland Center
Thu 03:29:21 PM 35.8731 -120.5425 324° Northwest 208 239 19,900 -389 Descending Oakland Center
Thu 03:31:24 PM 35.9772 -120.6347 324° Northwest 239 275 18,800 -522 Descending Oakland Center
Thu 03:32:25 PM 36.0297 -120.6825 324° Northwest 238 274 18,300 -488 Descending Oakland Center
Thu 03:33:27 PM 36.0914 -120.7397 323° Northwest 236 272 17,800 -195 Descending Oakland Center
Thu 03:34:28 PM 36.1417 -120.7836 325° Northwest 222 255 17,900 49 Climbing Oakland Center
Thu 03:35:30 PM 36.1908 -120.8278 324° Northwest 218 251 17,900  Level Oakland Center
Thu 03:36:31 PM 36.2383 -120.8733 322° Northwest 217 250 17,900 -244 Level Oakland Center
Thu 03:37:33 PM 36.2867 -120.9189 323° Northwest 221 254 17,400 -683 Descending Oakland Center
Thu 03:38:34 PM 36.3425 -120.9681 325° Northwest 245 282 16,500 -732 Descending Oakland Center
Thu 03:39:36 PM 36.3983 -121.0194 323° Northwest 251 289 15,900 -242 Descending Oakland Center
Thu 03:40:38 PM 36.4500 -121.0628 326° Northwest 228 262 16,000 49 Climbing Oakland Center
Thu 03:41:39 PM 36.5078 -121.1158 324° Northwest 217 250 16,000 -341 Level Oakland Center
Thu 03:42:41 PM 36.5586 -121.1594 325° Northwest 225 259 15,300 -683 Descending Oakland Center
Thu 03:43:42 PM 36.6122 -121.2083 324° Northwest 239 275 14,600 -732 Descending Oakland Center
Thu 03:44:44 PM 36.6653 -121.2542 325° Northwest 235 270 13,800 -726 Descending Oakland Center
Thu 03:45:46 PM 36.7164 -121.3006 324° Northwest 228 262 13,100 -732 Descending Oakland Center
Thu 03:46:47 PM 36.7656 -121.3478 322° Northwest 225 259 12,300 -780 Descending Oakland Center
Thu 03:47:49 PM 36.8228 -121.4000 324° Northwest 224 258 11,500 -726 Descending Oakland Center
Thu 03:48:51 PM 36.8700 -121.4433 324° Northwest 217 250 10,800 -732 Descending Oakland Center
Thu 03:49:52 PM 36.9203 -121.4861 326° Northwest 217 250 10,000 -780 Descending Oakland Center
Thu 03:50:54 PM 36.9672 -121.5322 322° Northwest 215 247 9,200 -780 Descending Oakland Center
Thu 03:51:55 PM 37.0169 -121.5747 326° Northwest 216 249 8,400 -927 Descending Oakland Center
Thu 03:52:57 PM 37.0650 -121.6197 323° Northwest 216 249 7,300 -1,065 Descending Oakland Center
Thu 03:53:59 PM 37.1150 -121.6656 324° Northwest 213 245 6,200 -1,500 Descending Oakland Center
Thu 03:54:37 PM 37.1500 -121.7000 322° Northwest 216 249 4,800 -1,653 Descending Northern Cal TRACON
Thu 03:55:37 PM 37.2000 -121.7500 321° Northwest 211 243 3,500 -1,061 Descending Northern Cal TRACON
Thu 03:57:04 PM 37.2536 -121.8117 318° Northwest 205 236 2,200 -608 Descending Oakland Center
Thu 03:58:05 PM 37.2894 -121.8514 319° Northwest 187 215 2,000 -585 Descending Oakland Center
Thu 03:59:07 PM 37.3208 -121.8853 319° Northwest 165 190 1,000 -823 Descending Oakland Center
Thu 04:00:09 PM 37.3486 -121.9144 320° Northwest 150 173 300 -677 Descending Oakland Center
Thu 04:02:00 PM 37.3500 -121.9167 142° Southeast  Level FlightAware Approximate

Login

Don't have an account? Register now (free) for customized features, flight alerts, and more!